createdAt,value
2019-05-11T00:01:42.906Z,100757.26
2019-05-11T00:04:15.613Z,100764.59
2019-05-11T00:06:47.274Z,100758.63
2019-05-11T00:09:19.116Z,100766.45
2019-05-11T00:11:51.200Z,100765.66
2019-05-11T00:14:23.268Z,100773.80
2019-05-11T00:16:54.922Z,100768.69
2019-05-11T00:19:26.780Z,100770.91
2019-05-11T00:21:58.752Z,100773.05
2019-05-11T00:24:30.511Z,100773.05
2019-05-11T00:27:02.474Z,100778.73
2019-05-11T00:29:34.525Z,100780.08
2019-05-11T00:32:06.520Z,100773.05
2019-05-11T00:34:39.489Z,100769.35
2019-05-11T00:37:11.231Z,100776.95
2019-05-11T00:39:43.000Z,100772.41
2019-05-11T00:42:14.953Z,100779.96
2019-05-11T00:44:47.655Z,100777.25
2019-05-11T00:47:19.621Z,100777.81
2019-05-11T00:49:51.465Z,100773.21
2019-05-11T00:52:23.344Z,100773.25
2019-05-11T00:54:55.203Z,100779.17
2019-05-11T00:57:27.150Z,100776.17
2019-05-11T00:59:59.013Z,100778.02
2019-05-11T01:02:30.965Z,100783.95
2019-05-11T01:05:02.861Z,100785.81
2019-05-11T01:07:34.810Z,100787.15
2019-05-11T01:10:21.756Z,100783.88
2019-05-11T01:12:41.517Z,100781.16
2019-05-11T01:15:13.814Z,100781.15
2019-05-11T01:18:04.801Z,100782.48
2019-05-11T01:20:36.454Z,100790.86
2019-05-11T01:23:08.510Z,100793.78
2019-05-11T01:25:40.183Z,100787.26
2019-05-11T01:28:12.048Z,100788.55
2019-05-11T01:30:43.806Z,100784.42
2019-05-11T01:33:15.855Z,100791.69
2019-05-11T01:35:50.997Z,100785.96
2019-05-11T01:38:20.931Z,100781.36
2019-05-11T01:40:58.516Z,100784.87
2019-05-11T01:43:26.825Z,100782.69
2019-05-11T01:45:58.537Z,100781.34
2019-05-11T01:48:30.626Z,100787.58
2019-05-11T01:51:02.509Z,100786.52
2019-05-11T01:53:35.581Z,100786.24
2019-05-11T01:56:07.979Z,100788.17
2019-05-11T01:58:40.022Z,100787.91
2019-05-11T02:01:12.194Z,100792.01
2019-05-11T02:03:44.464Z,100792.36
2019-05-11T02:06:16.102Z,100790.27
2019-05-11T02:08:47.860Z,100790.60
2019-05-11T02:11:19.568Z,100791.23
2019-05-11T02:13:51.917Z,100789.98
2019-05-11T02:16:23.554Z,100785.16
2019-05-11T02:18:55.614Z,100790.88
2019-05-11T02:21:27.501Z,100790.95
2019-05-11T02:23:59.668Z,100790.17
2019-05-11T02:26:31.306Z,100791.81
2019-05-11T02:29:03.193Z,100791.83
2019-05-11T02:31:34.947Z,100785.34
2019-05-11T02:34:06.793Z,100782.37
2019-05-11T02:36:39.085Z,100787.77
2019-05-11T02:39:11.134Z,100787.47
2019-05-11T02:41:43.097Z,100791.25
2019-05-11T02:44:15.151Z,100783.94
2019-05-11T02:46:47.230Z,100793.11
2019-05-11T02:49:19.033Z,100794.73
2019-05-11T02:51:51.068Z,100787.98
2019-05-11T02:54:22.813Z,100793.10
2019-05-11T02:56:54.589Z,100794.45
2019-05-11T02:59:29.819Z,100795.23
2019-05-11T03:02:00.684Z,100792.24
2019-05-11T03:04:32.631Z,100797.64
2019-05-11T03:07:04.484Z,100803.03
2019-05-11T03:09:36.667Z,100814.39
2019-05-11T03:12:08.324Z,100818.41
2019-05-11T03:14:40.285Z,100813.81
2019-05-11T03:17:19.727Z,100809.70
2019-05-11T03:19:51.475Z,100818.00
2019-05-11T03:22:24.582Z,100823.87
2019-05-11T03:24:56.438Z,100820.57
2019-05-11T03:27:28.405Z,100827.27
2019-05-11T03:30:01.648Z,100827.72
2019-05-11T03:32:34.117Z,100835.48
2019-05-11T03:35:06.642Z,100844.59
2019-05-11T03:37:38.309Z,100849.09
2019-05-11T03:40:10.591Z,100843.05
2019-05-11T03:42:42.233Z,100838.59
2019-05-11T03:45:14.719Z,100842.03
2019-05-11T03:47:46.482Z,100837.04
2019-05-11T03:50:18.526Z,100844.54
2019-05-11T03:52:50.215Z,100849.38
2019-05-11T03:55:22.100Z,100838.72
2019-05-11T03:57:54.578Z,100845.12
2019-05-11T04:00:26.716Z,100845.04
2019-05-11T04:02:58.478Z,100839.27
2019-05-11T04:05:30.202Z,100842.98
2019-05-11T04:08:03.425Z,100846.66
2019-05-11T04:10:35.288Z,100851.44
2019-05-11T04:13:07.152Z,100858.09
2019-05-11T04:15:38.751Z,100857.14
2019-05-11T04:18:10.755Z,100861.34
2019-05-11T04:20:42.861Z,100860.11
2019-05-11T04:23:14.503Z,100865.06
2019-05-11T04:25:46.566Z,100868.95
2019-05-11T04:28:18.329Z,100866.28
2019-05-11T04:30:50.494Z,100873.11
2019-05-11T04:33:22.152Z,100868.45
2019-05-11T04:35:53.915Z,100874.62
2019-05-11T04:38:25.458Z,100866.98
2019-05-11T04:40:57.239Z,100873.97
2019-05-11T04:43:29.189Z,100873.40
2019-05-11T04:46:01.037Z,100879.20
2019-05-11T04:48:33.365Z,100877.83
2019-05-11T04:51:05.078Z,100880.28
2019-05-11T04:53:37.092Z,100877.23
2019-05-11T04:56:09.131Z,100883.19
2019-05-11T04:58:41.175Z,100874.16
2019-05-11T05:01:12.836Z,100878.08
2019-05-11T05:03:47.364Z,100881.17
2019-05-11T05:06:23.978Z,100880.33
2019-05-11T05:08:58.315Z,100886.70
2019-05-11T05:11:30.596Z,100889.30
2019-05-11T05:14:02.208Z,100889.36
2019-05-11T05:16:33.411Z,100893.14
2019-05-11T05:19:08.634Z,100899.73
2019-05-11T05:21:41.226Z,100899.60
2019-05-11T05:24:13.821Z,100902.08
2019-05-11T05:26:45.562Z,100905.53
2019-05-11T05:29:19.248Z,100907.83
2019-05-11T05:31:51.122Z,100907.45
2019-05-11T05:34:25.135Z,100910.47
2019-05-11T05:36:56.689Z,100903.11
2019-05-11T05:39:29.344Z,100907.13
2019-05-11T05:42:02.273Z,100911.23
2019-05-11T05:44:38.034Z,100917.31
2019-05-11T05:47:10.293Z,100913.45
2019-05-11T05:49:42.026Z,100914.21
2019-05-11T05:52:13.809Z,100914.45
2019-05-11T05:54:45.851Z,100916.61
2019-05-11T05:57:17.835Z,100917.73
2019-05-11T05:59:49.913Z,100918.65
2019-05-11T06:02:21.645Z,100924.06
2019-05-11T06:04:54.166Z,100915.00
2019-05-11T06:07:26.311Z,100924.58
2019-05-11T06:09:58.482Z,100921.27
2019-05-11T06:12:30.431Z,100921.42
2019-05-11T06:15:02.338Z,100916.83
2019-05-11T06:17:34.360Z,100921.61
2019-05-11T06:20:08.120Z,100925.50
2019-05-11T06:22:40.553Z,100920.94
2019-05-11T06:25:12.363Z,100918.50
2019-05-11T06:27:44.266Z,100925.09
2019-05-11T06:30:17.679Z,100925.70
2019-05-11T06:32:49.726Z,100930.38
2019-05-11T06:35:22.736Z,100929.27
2019-05-11T06:37:54.482Z,100935.59
2019-05-11T06:40:45.227Z,100936.42
2019-05-11T06:43:17.452Z,100934.88
2019-05-11T06:45:49.217Z,100935.57
2019-05-11T06:48:22.927Z,100932.86
2019-05-11T06:50:55.128Z,100925.92
2019-05-11T06:53:26.845Z,100931.59
2019-05-11T06:55:58.702Z,100931.83
2019-05-11T06:58:30.579Z,100938.69
2019-05-11T07:01:02.529Z,100938.34
2019-05-11T07:03:35.204Z,100935.18
2019-05-11T07:06:07.073Z,100935.78
2019-05-11T07:08:39.250Z,100941.86
2019-05-11T07:11:10.905Z,100939.44
2019-05-11T07:13:42.969Z,100935.77
2019-05-11T07:16:15.025Z,100934.50
2019-05-11T07:18:46.879Z,100937.89
2019-05-11T07:21:18.942Z,100937.89
2019-05-11T07:23:50.922Z,100936.78
2019-05-11T07:26:22.762Z,100932.77
2019-05-11T07:28:54.343Z,100935.20
2019-05-11T07:31:26.519Z,100939.66
2019-05-11T07:33:59.076Z,100934.05
2019-05-11T07:36:31.061Z,100934.77
2019-05-11T07:39:02.718Z,100932.75
2019-05-11T07:41:35.608Z,100935.06
2019-05-11T07:44:09.787Z,100942.42
2019-05-11T07:46:40.659Z,100934.55
2019-05-11T07:49:12.628Z,100936.88
2019-05-11T07:51:44.365Z,100937.20
2019-05-11T07:54:18.579Z,100943.81
2019-05-11T07:56:49.756Z,100943.41
2019-05-11T07:59:21.592Z,100938.03
2019-05-11T08:01:54.398Z,100943.71
2019-05-11T08:04:28.751Z,100950.75
2019-05-11T08:07:00.782Z,100954.97
2019-05-11T08:09:32.749Z,100950.19
2019-05-11T08:12:04.919Z,100952.49
2019-05-11T08:14:55.810Z,100952.58
2019-05-11T08:17:10.193Z,100954.83
2019-05-11T08:19:43.065Z,100956.32
2019-05-11T08:22:14.829Z,100954.55
2019-05-11T08:24:48.150Z,100959.12
2019-05-11T08:27:19.994Z,100961.02
2019-05-11T08:29:52.056Z,100955.48
2019-05-11T08:32:23.813Z,100957.45
2019-05-11T08:34:57.948Z,100955.74
2019-05-11T08:37:30.180Z,100952.37
2019-05-11T08:40:03.237Z,100957.84
2019-05-11T08:42:34.831Z,100955.22
2019-05-11T08:45:19.403Z,100956.55
2019-05-11T08:47:40.312Z,100953.66
2019-05-11T08:50:15.256Z,100959.81
2019-05-11T08:52:47.866Z,100960.36
2019-05-11T08:55:19.138Z,100964.84
2019-05-11T08:57:52.246Z,100970.60
2019-05-11T09:00:24.386Z,100970.78
2019-05-11T09:02:58.268Z,100972.02
2019-05-11T09:05:29.299Z,100970.02
2019-05-11T09:08:01.343Z,100974.95
2019-05-11T09:10:36.725Z,100965.66
2019-05-11T09:13:08.024Z,100970.73
2019-05-11T09:15:40.864Z,100979.20
2019-05-11T09:18:12.582Z,100982.59
2019-05-11T09:20:44.559Z,100981.64
2019-05-11T09:23:30.953Z,100980.33
2019-05-11T09:25:49.721Z,100980.68
2019-05-11T09:28:21.479Z,100980.91
2019-05-11T09:30:53.545Z,100978.72
2019-05-11T09:33:25.389Z,100981.31
2019-05-11T09:35:58.375Z,100988.59
2019-05-11T09:38:30.259Z,100988.48
2019-05-11T09:41:02.007Z,100990.64
2019-05-11T09:43:33.966Z,100985.58
2019-05-11T09:46:08.207Z,100990.67
2019-05-11T09:48:39.763Z,100985.87
2019-05-11T09:51:11.416Z,100984.97
2019-05-11T09:53:43.175Z,100987.66
2019-05-11T09:56:15.014Z,100991.19
2019-05-11T09:58:48.095Z,100991.54
2019-05-11T10:01:20.080Z,100992.77
2019-05-11T10:03:52.154Z,100996.70
2019-05-11T10:06:24.864Z,100993.23
2019-05-11T10:08:57.890Z,100986.34
2019-05-11T10:11:29.935Z,100992.69
2019-05-11T10:14:02.058Z,100994.31
2019-05-11T10:16:34.020Z,100988.22
2019-05-11T10:19:08.279Z,100996.28
2019-05-11T10:21:39.829Z,100995.38
2019-05-11T10:24:11.868Z,100999.17
2019-05-11T10:26:43.507Z,100999.87
2019-05-11T10:29:15.360Z,101003.30
2019-05-11T10:31:48.105Z,100998.21
2019-05-11T10:34:20.008Z,101000.54
2019-05-11T10:36:51.893Z,101001.41
2019-05-11T10:39:23.993Z,101001.18
2019-05-11T10:41:58.109Z,101004.23
2019-05-11T10:44:29.122Z,101005.99
2019-05-11T10:47:01.083Z,101005.69
2019-05-11T10:49:33.146Z,101004.16
2019-05-11T10:52:04.682Z,101009.86
2019-05-11T10:54:39.729Z,101008.57
2019-05-11T10:59:40.700Z,101011.42
2019-05-11T11:02:12.768Z,101012.99
2019-05-11T11:04:44.429Z,101017.18
2019-05-11T11:07:19.292Z,101015.86
2019-05-11T11:09:49.887Z,101019.36
2019-05-11T11:12:21.726Z,101021.88
2019-05-11T11:14:53.474Z,101027.30
2019-05-11T11:17:25.575Z,101033.49
2019-05-11T11:19:58.026Z,101034.11
2019-05-11T11:22:39.394Z,101024.95
2019-05-11T11:25:03.197Z,101033.97
2019-05-11T11:27:37.947Z,101038.63
2019-05-11T11:30:09.630Z,101037.27
2019-05-11T11:32:41.648Z,101042.77
2019-05-11T11:35:14.007Z,101046.63
2019-05-11T11:37:47.806Z,101051.27
2019-05-11T11:40:20.197Z,101060.33
2019-05-11T11:42:51.995Z,101065.33
2019-05-11T11:45:24.104Z,101063.83
2019-05-11T11:47:57.889Z,101064.70
2019-05-11T11:50:29.590Z,101069.22
2019-05-11T11:53:01.279Z,101070.75
2019-05-11T11:55:33.314Z,101068.41
2019-05-11T11:58:05.370Z,101068.60
2019-05-11T12:00:39.341Z,101070.08
2019-05-11T12:03:12.940Z,101077.75
2019-05-11T12:05:47.648Z,101077.49
2019-05-11T12:08:19.250Z,101081.66
2019-05-11T12:10:51.010Z,101079.10
2019-05-11T12:13:22.789Z,101077.30
2019-05-11T12:15:54.643Z,101080.86
2019-05-11T12:18:28.652Z,101079.25
2019-05-11T12:21:00.908Z,101074.78
2019-05-11T12:23:32.763Z,101079.08
2019-05-11T12:26:04.849Z,101079.17
2019-05-11T12:28:38.166Z,101081.41
2019-05-11T12:31:10.000Z,101083.63
2019-05-11T12:33:41.976Z,101089.42
2019-05-11T12:36:14.016Z,101087.22
2019-05-11T12:38:48.559Z,101091.72
2019-05-11T12:41:19.476Z,101089.44
2019-05-11T12:43:51.539Z,101095.69
2019-05-11T12:46:23.510Z,101091.28
2019-05-11T12:48:57.263Z,101087.81
2019-05-11T12:51:28.555Z,101087.26
2019-05-11T12:54:00.384Z,101091.83
2019-05-11T12:56:32.277Z,101094.66
2019-05-11T12:59:04.253Z,101091.55
2019-05-11T13:01:38.133Z,101092.88
2019-05-11T13:04:10.724Z,101094.33
2019-05-11T13:06:42.479Z,101086.48
2019-05-11T13:09:14.714Z,101089.97
2019-05-11T13:11:48.156Z,101089.54
2019-05-11T13:14:20.027Z,101099.62
2019-05-11T13:16:51.897Z,101095.14
2019-05-11T13:19:23.893Z,101099.80
2019-05-11T13:21:55.906Z,101098.43
2019-05-11T13:24:28.318Z,101094.23
2019-05-11T13:27:00.312Z,101094.39
2019-05-11T13:29:32.011Z,101094.48
2019-05-11T13:32:04.979Z,101095.14
2019-05-11T13:34:38.722Z,101104.31
2019-05-11T13:37:10.558Z,101102.03
2019-05-11T13:39:42.418Z,101097.41
2019-05-11T13:42:14.057Z,101100.66
2019-05-11T13:44:47.831Z,101098.53
2019-05-11T13:47:19.554Z,101101.13
2019-05-11T13:49:51.684Z,101100.53
2019-05-11T13:52:23.872Z,101092.02
2019-05-11T13:54:55.585Z,101102.34
2019-05-11T13:57:28.638Z,101096.05
2019-05-11T14:00:00.429Z,101092.25
2019-05-11T14:02:32.055Z,101094.95
2019-05-11T14:05:04.146Z,101089.66
2019-05-11T14:07:37.956Z,101091.94
2019-05-11T14:10:10.186Z,101088.88
2019-05-11T14:12:41.826Z,101090.56
2019-05-11T14:15:15.241Z,101090.91
2019-05-11T14:17:48.586Z,101092.60
2019-05-11T14:20:21.081Z,101089.75
2019-05-11T14:22:53.259Z,101098.02
2019-05-11T14:25:25.028Z,101092.38
2019-05-11T14:27:59.401Z,101093.38
2019-05-11T14:30:30.461Z,101095.08
2019-05-11T14:33:02.523Z,101096.49
2019-05-11T14:35:34.723Z,101088.25
2019-05-11T14:38:08.042Z,101090.74
2019-05-11T14:40:39.783Z,101102.22
2019-05-11T14:43:11.299Z,101108.37
2019-05-11T14:45:43.145Z,101112.02
2019-05-11T14:48:24.038Z,101114.48
2019-05-11T14:50:48.976Z,101116.33
2019-05-11T14:53:20.749Z,101117.87
2019-05-11T14:55:52.340Z,101118.98
2019-05-11T14:58:23.894Z,101117.16
2019-05-11T15:00:55.460Z,101118.06
2019-05-11T15:03:28.734Z,101109.86
2019-05-11T15:06:00.515Z,101115.53
2019-05-11T15:08:33.586Z,101116.70
2019-05-11T15:11:08.271Z,101117.09
2019-05-11T15:13:40.814Z,101122.94
2019-05-11T15:16:12.672Z,101124.90
2019-05-11T15:18:44.432Z,101128.92
2019-05-11T15:21:18.654Z,101127.91
2019-05-11T15:23:49.688Z,101124.46
2019-05-11T15:26:21.454Z,101119.12
2019-05-11T15:28:53.202Z,101125.25
2019-05-11T15:31:27.715Z,101116.45
2019-05-11T15:33:58.866Z,101122.21
2019-05-11T15:36:30.936Z,101119.91
2019-05-11T15:39:03.110Z,101128.55
2019-05-11T15:41:35.145Z,101123.73
2019-05-11T15:44:11.324Z,101128.72
2019-05-11T15:46:40.990Z,101129.92
2019-05-11T15:49:12.571Z,101131.02
2019-05-11T15:51:44.137Z,101140.02
2019-05-11T15:54:18.484Z,101141.78
2019-05-11T15:56:50.528Z,101142.64
2019-05-11T15:59:22.576Z,101151.08
2019-05-11T16:01:54.825Z,101151.36
2019-05-11T16:04:28.084Z,101147.72
2019-05-11T16:07:00.834Z,101149.37
2019-05-11T16:09:32.775Z,101153.14
2019-05-11T16:12:04.756Z,101154.44
2019-05-11T16:14:39.817Z,101157.94
2019-05-11T16:17:15.647Z,101157.33
2019-05-11T16:19:49.071Z,101159.94
2019-05-11T16:22:21.622Z,101156.53
2019-05-11T16:24:53.712Z,101157.96
2019-05-11T16:27:28.354Z,101165.73
2019-05-11T16:29:59.761Z,101161.45
2019-05-11T16:32:31.520Z,101163.75
2019-05-11T16:35:03.490Z,101160.34
2019-05-11T16:37:37.839Z,101164.25
2019-05-11T16:40:09.725Z,101168.40
2019-05-11T16:42:41.296Z,101176.95
2019-05-11T16:45:13.352Z,101179.00
2019-05-11T16:47:45.018Z,101182.89
2019-05-11T16:50:18.184Z,101183.84
2019-05-11T16:52:50.194Z,101183.15
2019-05-11T16:55:26.147Z,101183.26
2019-05-11T16:57:58.771Z,101186.36
2019-05-11T17:00:30.992Z,101183.99
2019-05-11T17:03:03.197Z,101182.20
2019-05-11T17:05:38.066Z,101182.87
2019-05-11T17:08:10.271Z,101180.25
2019-05-11T17:10:44.283Z,101182.85
2019-05-11T17:13:18.079Z,101184.32
2019-05-11T17:15:49.843Z,101186.04
2019-05-11T17:18:22.505Z,101188.55
2019-05-11T17:20:55.053Z,101186.76
2019-05-11T17:23:30.884Z,101186.28
2019-05-11T17:26:03.510Z,101191.31
2019-05-11T17:28:35.391Z,101199.62
2019-05-11T17:31:08.058Z,101194.88
2019-05-11T17:33:40.244Z,101196.94
2019-05-11T17:36:12.173Z,101202.52
2019-05-11T17:38:47.906Z,101207.08
2019-05-11T17:41:19.850Z,101206.41
2019-05-11T17:43:51.884Z,101207.10
2019-05-11T17:46:23.734Z,101213.46
2019-05-11T17:48:55.804Z,101220.42
2019-05-11T17:51:28.706Z,101223.26
2019-05-11T17:54:00.553Z,101233.42
2019-05-11T17:56:32.611Z,101230.84
2019-05-11T17:59:04.455Z,101238.55
2019-05-11T18:01:41.592Z,101236.50
2019-05-11T18:04:14.434Z,101239.85
2019-05-11T18:06:48.171Z,101244.50
2019-05-11T18:09:21.441Z,101246.98
2019-05-11T18:11:53.404Z,101248.64
2019-05-11T18:14:28.013Z,101257.13
2019-05-11T18:16:59.289Z,101259.65
2019-05-11T18:19:31.492Z,101260.58
2019-05-11T18:22:03.607Z,101264.72
2019-05-11T18:24:38.265Z,101264.48
2019-05-11T18:27:11.097Z,101267.28
2019-05-11T18:29:44.432Z,101271.13
2019-05-11T18:32:16.955Z,101266.80
2019-05-11T18:34:49.416Z,101267.93
2019-05-11T18:37:22.602Z,101270.67
2019-05-11T18:39:54.418Z,101276.97
2019-05-11T18:42:26.287Z,101278.64
2019-05-11T18:45:00.259Z,101280.09
2019-05-11T18:47:31.842Z,101280.41
2019-05-11T18:50:04.099Z,101279.08
2019-05-11T18:52:36.578Z,101282.88
2019-05-11T18:55:09.267Z,101274.22
2019-05-11T18:57:41.231Z,101276.63
2019-05-11T19:00:13.221Z,101271.95
2019-05-11T19:02:49.546Z,101273.03
2019-05-11T19:05:20.988Z,101272.23
2019-05-11T19:07:52.848Z,101273.08
2019-05-11T19:10:25.022Z,101276.97
2019-05-11T19:12:58.945Z,101280.02
2019-05-11T19:15:31.028Z,101280.38
2019-05-11T19:18:03.119Z,101288.34
2019-05-11T19:20:45.255Z,101282.44
2019-05-11T19:23:09.427Z,101293.08
2019-05-11T19:25:42.030Z,101282.26
2019-05-11T19:28:14.193Z,101285.06
2019-05-11T19:30:48.643Z,101291.91
2019-05-11T19:33:19.807Z,101290.34
2019-05-11T19:35:52.003Z,101293.89
2019-05-11T19:38:23.965Z,101299.09
2019-05-11T19:40:55.609Z,101301.54
2019-05-11T19:43:27.747Z,101304.83
2019-05-11T19:45:59.625Z,101306.77
2019-05-11T19:48:31.690Z,101303.00
2019-05-11T19:51:08.120Z,101306.57
2019-05-11T19:53:38.616Z,101304.67
2019-05-11T19:56:10.296Z,101299.24
2019-05-11T19:58:42.260Z,101304.94
2019-05-11T20:01:14.344Z,101309.80
2019-05-11T20:03:47.422Z,101311.14
2019-05-11T20:06:19.374Z,101310.05
2019-05-11T20:08:51.123Z,101314.63
2019-05-11T20:11:24.002Z,101317.37
2019-05-11T20:13:55.763Z,101318.77
2019-05-11T20:16:27.626Z,101316.61
2019-05-11T20:18:59.799Z,101314.19
2019-05-11T20:21:31.856Z,101318.83
2019-05-11T20:24:05.164Z,101317.00
2019-05-11T20:26:37.837Z,101317.00
2019-05-11T20:29:09.902Z,101315.15
2019-05-11T20:31:41.560Z,101316.52
2019-05-11T20:34:13.325Z,101321.22
2019-05-11T20:36:47.965Z,101321.80
2019-05-11T20:39:19.173Z,101323.45
2019-05-11T20:41:51.149Z,101317.25
2019-05-11T20:44:22.941Z,101315.90
2019-05-11T20:46:54.860Z,101320.80
2019-05-11T20:49:28.284Z,101317.80
2019-05-11T20:52:00.136Z,101318.31
2019-05-11T20:54:31.870Z,101316.66
2019-05-11T20:57:03.755Z,101320.16
2019-05-11T20:59:38.070Z,101321.50
2019-05-11T21:02:09.407Z,101320.11
2019-05-11T21:04:42.296Z,101323.38
2019-05-11T21:07:14.307Z,101326.36
2019-05-11T21:09:48.249Z,101322.58
2019-05-11T21:12:21.004Z,101325.02
2019-05-11T21:14:52.899Z,101334.79
2019-05-11T21:17:24.445Z,101334.00
2019-05-11T21:19:56.603Z,101330.49
2019-05-11T21:22:29.382Z,101332.66
2019-05-11T21:25:01.790Z,101332.67
2019-05-11T21:27:34.675Z,101335.42
2019-05-11T21:30:10.627Z,101339.50
2019-05-11T21:32:42.382Z,101338.70
2019-05-11T21:35:14.751Z,101343.61
2019-05-11T21:37:48.761Z,101339.27
2019-05-11T21:40:20.612Z,101342.53
2019-05-11T21:42:52.797Z,101337.39
2019-05-11T21:45:24.748Z,101342.01
2019-05-11T21:47:58.056Z,101344.16
2019-05-11T21:50:30.895Z,101343.09
2019-05-11T21:53:02.709Z,101344.16
2019-05-11T21:55:34.862Z,101343.12
2019-05-11T21:58:09.007Z,101342.59
2019-05-11T22:00:40.630Z,101342.86
2019-05-11T22:03:12.594Z,101341.46
2019-05-11T22:05:44.349Z,101343.63
2019-05-11T22:08:17.868Z,101344.17
2019-05-11T22:10:49.924Z,101340.38
2019-05-11T22:13:21.759Z,101344.70
2019-05-11T22:15:53.893Z,101336.05
2019-05-11T22:18:30.969Z,101342.27
2019-05-11T22:20:58.879Z,101347.12
2019-05-11T22:23:30.696Z,101347.38
2019-05-11T22:26:02.397Z,101351.14
2019-05-11T22:28:34.074Z,101350.61
2019-05-11T22:31:07.806Z,101354.10
2019-05-11T22:33:39.938Z,101352.20
2019-05-11T22:36:11.576Z,101348.69
2019-05-11T22:38:43.757Z,101347.61
2019-05-11T22:41:17.968Z,101344.63
2019-05-11T22:43:49.201Z,101343.27
2019-05-11T22:46:21.499Z,101340.84
2019-05-11T22:48:53.270Z,101344.61
2019-05-11T22:51:25.441Z,101347.57
2019-05-11T22:53:59.140Z,101347.03
2019-05-11T22:56:31.394Z,101343.22
2019-05-11T22:59:02.943Z,101341.84
2019-05-11T23:01:34.807Z,101334.53
2019-05-11T23:04:06.607Z,101329.34
2019-05-11T23:06:40.455Z,101333.64
2019-05-11T23:09:12.134Z,101326.88
2019-05-11T23:11:43.877Z,101329.27
2019-05-11T23:14:17.718Z,101331.42
2019-05-11T23:16:49.976Z,101337.35
2019-05-11T23:19:21.818Z,101337.85
2019-05-11T23:21:54.159Z,101341.91
2019-05-11T23:24:28.572Z,101336.53
2019-05-11T23:27:00.263Z,101333.04
2019-05-11T23:29:32.131Z,101329.55
2019-05-11T23:32:04.489Z,101339.29
2019-05-11T23:34:38.589Z,101339.02
2019-05-11T23:37:09.639Z,101346.31
2019-05-11T23:39:41.553Z,101347.36
2019-05-11T23:42:13.599Z,101347.62
2019-05-11T23:44:47.922Z,101344.66
2019-05-11T23:47:20.361Z,101352.74
2019-05-11T23:49:53.061Z,101357.84
2019-05-11T23:52:24.805Z,101349.22
2019-05-11T23:54:58.833Z,101358.96
2019-05-11T23:57:33.062Z,101355.97
